SKCC/CUC METAR and TAF weather

Enter ICAO airport designator
Station Type Date Time Source
SKCC METAR 2019/02/23 01:00 UTC NOAA

SKCC 230100Z 22004KT 8000 SCT020 28/20 A2996 RMK HZ


Station Type Date Time Source
SKCC Decoded METAR 2019/02/23 01:00 UTC NOAA

Cucuta / Camilo Daza, Colombia (SKCC) 07-56N 072-31W 317M
Feb 22, 2019 - 08:00 PM EST / 2019.02.23 0100 UTC
Wind: from the SW (220 degrees) at 5 MPH (4 KT):0
Visibility: 4 mile(s):0
Sky conditions: partly cloudy
Temperature: 82 F (28 C)
Dew Point: 68 F (20 C)
Relative Humidity: 61%
Pressure (altimeter): 29.96 in. Hg (1014 hPa)
ob: SKCC 230100Z 22004KT 8000 SCT020 28/20 A2996 RMK HZ
cycle: 1

Station Type Date Time Source
SKCC TAF 2019/02/22 18:42 UTC NOAA

TAF TAF SKCC 221700Z 2218/2318 36008KT 8000 SCT020
TEMPO 2301/2308 VRB02KT TX31/2218Z TN23/2311Z


Example: see airport list